Time;durP1;ratioP1;P1;durP2;ratioP2;P2;SDS_P1;SDS_P2;PMS_P1;PMS_P2;Temp;Humidity;BMP_temperature;BMP_pressure;BME280_temperature;BME280_humidity;BME280_pressure;Samples;Min_cycle;Max_cycle;Signal;HPM_P1;HPM_P2
2023/01/25 00:00:46;;;;;;;2.33;2.03;;;;;;;;;;4992955;28;20559;-76
2023/01/25 00:03:12;;;;;;;2.95;2.28;;;;;;;;;;4992753;28;20050;-76
2023/01/25 00:05:38;;;;;;;2.45;2.25;;;;;;;;;;4992493;28;20077;-77
2023/01/25 00:08:05;;;;;;;2.50;2.30;;;;;;;;;;4992969;28;20031;-76
2023/01/25 00:10:31;;;;;;;2.70;2.28;;;;;;;;;;4992720;28;20026;-76
2023/01/25 00:12:57;;;;;;;2.53;2.33;;;;;;;;;;4992811;28;20468;-76
2023/01/25 00:15:23;;;;;;;2.33;2.13;;;;;;;;;;4993070;28;20031;-76
2023/01/25 00:17:49;;;;;;;2.60;2.20;;;;;;;;;;4992661;28;20031;-76
2023/01/25 00:20:15;;;;;;;2.58;2.38;;;;;;;;;;4991355;28;20045;-76
2023/01/25 00:22:41;;;;;;;2.88;2.25;;;;;;;;;;4992853;28;20106;-80
2023/01/25 00:25:07;;;;;;;2.45;2.22;;;;;;;;;;4991573;28;20528;-80
2023/01/25 00:27:33;;;;;;;2.83;2.50;;;;;;;;;;4992681;28;20022;-80
2023/01/25 00:29:59;;;;;;;2.58;2.15;;;;;;;;;;4992746;28;20029;-80
2023/01/25 00:32:33;;;;;;;2.90;2.50;;;;;;;;;;4992650;28;20030;-80
2023/01/25 00:34:59;;;;;;;2.80;2.20;;;;;;;;;;4992726;28;20425;-80
2023/01/25 00:37:48;;;;;;;3.00;2.60;;;;;;;;;;4992631;28;20073;-80
2023/01/25 00:40:15;;;;;;;2.47;2.28;;;;;;;;;;4992637;28;20035;-76
2023/01/25 00:42:41;;;;;;;3.97;2.55;;;;;;;;;;4992578;28;20026;-76
2023/01/25 00:45:07;;;;;;;2.70;2.38;;;;;;;;;;4994640;28;20034;-76
2023/01/25 00:47:33;;;;;;;3.92;2.35;;;;;;;;;;4996337;28;20084;-76
2023/01/25 00:49:59;;;;;;;2.25;2.05;;;;;;;;;;4996422;28;20408;-76
2023/01/25 00:52:27;;;;;;;2.70;2.40;;;;;;;;;;4996236;28;20080;-76
2023/01/25 00:54:53;;;;;;;2.33;2.13;;;;;;;;;;4996307;28;20023;-79
2023/01/25 00:57:19;;;;;;;2.58;2.17;;;;;;;;;;4996382;28;20042;-76
2023/01/25 00:59:46;;;;;;;2.47;2.28;;;;;;;;;;4996155;28;20035;-76
2023/01/25 01:02:12;;;;;;;2.08;1.80;;;;;;;;;;4995884;28;20473;-76
2023/01/25 01:04:38;;;;;;;2.45;2.25;;;;;;;;;;4996180;28;20038;-76
2023/01/25 01:07:04;;;;;;;2.50;2.28;;;;;;;;;;4996365;28;20061;-76
2023/01/25 01:09:32;;;;;;;3.17;2.50;;;;;;;;;;4995983;28;20058;-79
2023/01/25 01:11:58;;;;;;;2.83;2.38;;;;;;;;;;4996072;28;20026;-76
2023/01/25 01:14:24;;;;;;;2.20;2.10;;;;;;;;;;4995976;28;20065;-76
2023/01/25 01:16:50;;;;;;;2.75;2.40;;;;;;;;;;4996158;28;20034;-76
2023/01/25 01:19:16;;;;;;;2.58;2.28;;;;;;;;;;4995849;28;20050;-76
2023/01/25 01:21:42;;;;;;;3.60;2.40;;;;;;;;;;4995951;28;20088;-76
2023/01/25 01:24:12;;;;;;;3.33;2.78;;;;;;;;;;4996009;28;20030;-76
2023/01/25 01:26:39;;;;;;;3.38;2.83;;;;;;;;;;4995536;28;20840;-76
2023/01/25 01:29:05;;;;;;;2.78;2.58;;;;;;;;;;4995596;28;20034;-76
2023/01/25 01:31:31;;;;;;;2.38;1.88;;;;;;;;;;4995537;28;20030;-76
2023/01/25 01:33:57;;;;;;;2.90;2.53;;;;;;;;;;4995573;28;20424;-76
2023/01/25 01:36:25;;;;;;;2.20;2.00;;;;;;;;;;4995691;28;20392;-76
2023/01/25 01:38:51;;;;;;;2.38;2.17;;;;;;;;;;4995408;28;20034;-76
2023/01/25 01:41:19;;;;;;;2.53;2.33;;;;;;;;;;4995443;28;20493;-76
2023/01/25 01:43:46;;;;;;;3.35;2.60;;;;;;;;;;4995572;28;20042;-76
2023/01/25 01:46:19;;;;;;;2.15;1.95;;;;;;;;;;4995407;28;20474;-76
2023/01/25 01:48:51;;;;;;;3.58;2.97;;;;;;;;;;4995348;28;20084;-76
2023/01/25 01:51:17;;;;;;;3.88;2.30;;;;;;;;;;4995316;28;20081;-76
2023/01/25 01:53:56;;;;;;;2.65;2.45;;;;;;;;;;4995505;28;20030;-80
2023/01/25 01:56:32;;;;;;;3.17;2.75;;;;;;;;;;4994406;28;20030;-80
2023/01/25 01:58:58;;;;;;;2.05;1.92;;;;;;;;;;4995092;28;20038;-80
2023/01/25 02:01:24;;;;;;;3.47;2.38;;;;;;;;;;4995043;28;20034;-80
2023/01/25 02:03:51;;;;;;;2.78;2.40;;;;;;;;;;4994835;28;20492;-80
2023/01/25 02:06:25;;;;;;;2.30;2.10;;;;;;;;;;4995091;28;20030;-80
2023/01/25 02:08:52;;;;;;;2.97;2.65;;;;;;;;;;4995035;28;20034;-80
2023/01/25 02:11:18;;;;;;;2.60;2.40;;;;;;;;;;4994939;28;20038;-79
2023/01/25 02:13:45;;;;;;;3.17;2.60;;;;;;;;;;4994943;28;20109;-80
2023/01/25 02:16:16;;;;;;;2.72;2.30;;;;;;;;;;4994806;28;20022;-80
2023/01/25 02:18:43;;;;;;;2.58;2.35;;;;;;;;;;4994732;28;20034;-80
2023/01/25 02:21:09;;;;;;;2.60;2.40;;;;;;;;;;4994738;28;20511;-80
2023/01/25 02:23:54;;;;;;;3.92;2.60;;;;;;;;;;4994655;28;20022;-80
2023/01/25 02:26:23;;;;;;;2.40;2.10;;;;;;;;;;4994607;28;20088;-80
2023/01/25 02:28:54;;;;;;;2.20;2.00;;;;;;;;;;4994598;28;20022;-81
2023/01/25 02:31:21;;;;;;;2.88;2.25;;;;;;;;;;4994677;28;20541;-77
2023/01/25 02:33:47;;;;;;;2.60;2.40;;;;;;;;;;4994434;28;20049;-77
2023/01/25 02:36:22;;;;;;;2.78;2.47;;;;;;;;;;4994492;28;20026;-76
2023/01/25 02:38:52;;;;;;;2.40;2.20;;;;;;;;;;4994335;28;20401;-77
2023/01/25 02:41:22;;;;;;;2.42;2.22;;;;;;;;;;4994336;28;20096;-76
2023/01/25 02:43:48;;;;;;;2.95;2.65;;;;;;;;;;4994384;28;20073;-77
2023/01/25 02:46:21;;;;;;;2.50;2.30;;;;;;;;;;4994236;28;20038;-77
2023/01/25 02:48:48;;;;;;;3.50;3.00;;;;;;;;;;4994207;28;20038;-81
2023/01/25 02:51:14;;;;;;;2.83;2.50;;;;;;;;;;4994122;28;20022;-81
2023/01/25 02:53:41;;;;;;;3.00;2.65;;;;;;;;;;4994326;28;20030;-80
2023/01/25 02:56:07;;;;;;;2.55;2.33;;;;;;;;;;4993992;28;20491;-81
2023/01/25 02:58:34;;;;;;;3.20;2.70;;;;;;;;;;4993952;28;20073;-80
2023/01/25 03:01:02;;;;;;;3.25;2.75;;;;;;;;;;4994216;28;20189;-80
2023/01/25 03:03:30;;;;;;;2.67;2.42;;;;;;;;;;4993651;28;20057;-81
2023/01/25 03:05:56;;;;;;;3.10;2.60;;;;;;;;;;4993700;28;20516;-80
2023/01/25 03:08:22;;;;;;;2.95;2.40;;;;;;;;;;4994309;28;20385;-80
2023/01/25 03:10:49;;;;;;;2.80;2.60;;;;;;;;;;4993966;28;20026;-80
2023/01/25 03:13:15;;;;;;;2.80;2.20;;;;;;;;;;4993656;28;20040;-80
2023/01/25 03:15:42;;;;;;;4.00;2.90;;;;;;;;;;4993974;28;20036;-80
2023/01/25 03:18:10;;;;;;;3.05;2.70;;;;;;;;;;4993616;28;20030;-80
2023/01/25 03:20:36;;;;;;;2.83;2.47;;;;;;;;;;4993569;28;20030;-80
2023/01/25 03:23:02;;;;;;;2.72;2.53;;;;;;;;;;4993843;28;20034;-80
2023/01/25 03:25:29;;;;;;;3.55;2.35;;;;;;;;;;4993485;28;20488;-80
2023/01/25 03:27:55;;;;;;;3.42;2.85;;;;;;;;;;4993767;28;20034;-80
2023/01/25 03:30:21;;;;;;;3.05;2.70;;;;;;;;;;4993423;28;20101;-80
2023/01/25 03:32:49;;;;;;;3.10;2.30;;;;;;;;;;4993421;28;20076;-80
2023/01/25 03:35:15;;;;;;;2.92;2.63;;;;;;;;;;4993358;28;20034;-80
2023/01/25 03:37:41;;;;;;;3.25;2.60;;;;;;;;;;4993351;28;20426;-81
2023/01/25 03:40:08;;;;;;;3.58;2.67;;;;;;;;;;4993290;28;20130;-81
2023/01/25 03:42:34;;;;;;;3.10;2.67;;;;;;;;;;4993325;28;20481;-82
2023/01/25 03:45:00;;;;;;;2.63;2.28;;;;;;;;;;4993330;28;20034;-76
2023/01/25 03:47:26;;;;;;;3.63;2.85;;;;;;;;;;4993203;28;20053;-77
2023/01/25 03:49:52;;;;;;;3.72;2.72;;;;;;;;;;4993240;28;20030;-76
2023/01/25 03:52:18;;;;;;;3.00;2.70;;;;;;;;;;4993345;28;20026;-76
2023/01/25 03:54:44;;;;;;;3.65;2.70;;;;;;;;;;4993027;28;20050;-76
2023/01/25 03:57:10;;;;;;;2.88;2.60;;;;;;;;;;4993420;28;20116;-76
2023/01/25 03:59:36;;;;;;;3.17;2.88;;;;;;;;;;4992928;28;20034;-76
2023/01/25 04:02:02;;;;;;;3.13;2.83;;;;;;;;;;4992764;28;20038;-76
2023/01/25 04:04:28;;;;;;;3.03;2.72;;;;;;;;;;4992888;28;20504;-76
2023/01/25 04:06:54;;;;;;;3.70;2.95;;;;;;;;;;4993157;28;20027;-76
2023/01/25 04:09:20;;;;;;;3.10;2.75;;;;;;;;;;4992892;28;20500;-76
2023/01/25 04:11:49;;;;;;;3.90;3.17;;;;;;;;;;4992736;28;20031;-76
2023/01/25 04:14:15;;;;;;;2.90;2.60;;;;;;;;;;4993152;28;20040;-78
2023/01/25 04:16:41;;;;;;;3.25;2.80;;;;;;;;;;4959441;28;20496;-78
2023/01/25 04:19:07;;;;;;;3.20;2.90;;;;;;;;;;4992159;28;20038;-82
2023/01/25 04:21:33;;;;;;;2.92;2.63;;;;;;;;;;4992767;28;20082;-82
2023/01/25 04:23:59;;;;;;;3.38;2.90;;;;;;;;;;4992862;28;20031;-83
2023/01/25 04:26:25;;;;;;;3.10;2.88;;;;;;;;;;4992710;28;20455;-82
2023/01/25 04:28:51;;;;;;;3.50;2.72;;;;;;;;;;4992756;28;20023;-83
2023/01/25 04:31:17;;;;;;;3.13;2.83;;;;;;;;;;4992625;28;20026;-82
2023/01/25 04:33:43;;;;;;;3.00;2.70;;;;;;;;;;4992773;28;20030;-82
2023/01/25 04:36:09;;;;;;;3.30;3.00;;;;;;;;;;4992695;28;20026;-82
2023/01/25 04:38:35;;;;;;;3.20;2.90;;;;;;;;;;4992613;28;20481;-78
2023/01/25 04:41:03;;;;;;;2.95;2.67;;;;;;;;;;4992677;28;20113;-78
2023/01/25 04:43:29;;;;;;;3.83;2.70;;;;;;;;;;4992933;28;20362;-78
2023/01/25 04:45:55;;;;;;;2.88;2.55;;;;;;;;;;4992534;28;20049;-78
2023/01/25 04:48:22;;;;;;;3.58;3.08;;;;;;;;;;4992564;28;20022;-78
2023/01/25 04:50:48;;;;;;;4.00;3.25;;;;;;;;;;4992823;28;20377;-78
2023/01/25 04:53:15;;;;;;;3.20;2.83;;;;;;;;;;4992579;28;20445;-78
2023/01/25 04:55:46;;;;;;;4.10;3.38;;;;;;;;;;4992733;28;20031;-81
2023/01/25 04:58:12;;;;;;;3.70;3.05;;;;;;;;;;4992679;28;20046;-78
2023/01/25 05:00:38;;;;;;;4.05;3.13;;;;;;;;;;4992305;28;20070;-78
2023/01/25 05:03:04;;;;;;;3.17;2.83;;;;;;;;;;4992178;28;20405;-78
2023/01/25 05:05:30;;;;;;;3.33;2.97;;;;;;;;;;4992316;28;20033;-78
2023/01/25 05:07:56;;;;;;;3.15;2.85;;;;;;;;;;4992489;28;20030;-78
2023/01/25 05:10:22;;;;;;;3.33;3.00;;;;;;;;;;4992603;28;20029;-78
2023/01/25 05:12:48;;;;;;;2.95;2.65;;;;;;;;;;4992289;28;20623;-78
2023/01/25 05:15:14;;;;;;;3.72;3.15;;;;;;;;;;4992294;28;20062;-82
2023/01/25 05:17:40;;;;;;;2.92;2.63;;;;;;;;;;4992331;28;20085;-78
2023/01/25 05:20:06;;;;;;;2.85;2.53;;;;;;;;;;4992212;28;20034;-78
2023/01/25 05:22:32;;;;;;;3.92;3.47;;;;;;;;;;4992186;28;20030;-78
2023/01/25 05:25:00;;;;;;;3.92;3.53;;;;;;;;;;4992223;28;20043;-78
2023/01/25 05:27:27;;;;;;;3.20;2.75;;;;;;;;;;4992101;28;20022;-78
2023/01/25 05:29:53;;;;;;;3.10;2.80;;;;;;;;;;4992364;28;20424;-78
2023/01/25 05:32:20;;;;;;;2.97;2.70;;;;;;;;;;4994355;28;20472;-78
2023/01/25 05:34:47;;;;;;;3.33;2.90;;;;;;;;;;4995544;28;20030;-82
2023/01/25 05:37:15;;;;;;;2.75;2.53;;;;;;;;;;4995664;28;20026;-82
2023/01/25 05:39:41;;;;;;;3.35;2.80;;;;;;;;;;4995428;28;20081;-81
2023/01/25 05:42:12;;;;;;;3.80;3.05;;;;;;;;;;4995797;28;20026;-82
2023/01/25 05:44:39;;;;;;;3.60;2.95;;;;;;;;;;4995489;28;20084;-81
2023/01/25 05:47:05;;;;;;;3.22;2.85;;;;;;;;;;4995473;28;20022;-81
2023/01/25 05:49:31;;;;;;;4.80;4.00;;;;;;;;;;4978141;28;20101;-81
2023/01/25 05:51:57;;;;;;;5.10;4.68;;;;;;;;;;4995278;28;20541;-79
2023/01/25 05:54:23;;;;;;;5.55;5.05;;;;;;;;;;4995381;28;20026;-78
2023/01/25 05:56:49;;;;;;;7.55;6.95;;;;;;;;;;4995209;28;20440;-78
2023/01/25 05:59:16;;;;;;;9.43;8.63;;;;;;;;;;4995222;28;20046;-78
2023/01/25 06:01:42;;;;;;;11.90;10.82;;;;;;;;;;4995093;28;20496;-78
2023/01/25 06:04:10;;;;;;;16.30;14.90;;;;;;;;;;4994970;28;20050;-78
2023/01/25 06:06:36;;;;;;;20.05;18.23;;;;;;;;;;4995272;28;20089;-79
2023/01/25 06:09:02;;;;;;;25.52;23.13;;;;;;;;;;4995077;28;20026;-77
2023/01/25 06:11:28;;;;;;;32.63;29.58;;;;;;;;;;4995054;28;20058;-82
2023/01/25 06:13:54;;;;;;;37.25;33.72;;;;;;;;;;4995194;28;20053;-82
2023/01/25 06:16:20;;;;;;;44.22;39.92;;;;;;;;;;4994941;28;20470;-82
2023/01/25 06:18:46;;;;;;;46.97;42.35;;;;;;;;;;4994868;28;20040;-80
2023/01/25 06:21:12;;;;;;;47.90;43.08;;;;;;;;;;4994913;28;20030;-85
2023/01/25 06:23:39;;;;;;;48.70;43.78;;;;;;;;;;4994930;28;20026;-83
2023/01/25 06:26:07;;;;;;;48.28;43.38;;;;;;;;;;4994807;28;20084;-84
2023/01/25 06:28:34;;;;;;;48.45;43.60;;;;;;;;;;4994952;28;20085;-84
2023/01/25 06:31:05;;;;;;;47.42;42.40;;;;;;;;;;4993335;28;20030;-77
2023/01/25 06:33:31;;;;;;;45.80;41.17;;;;;;;;;;4994562;28;20029;-77
2023/01/25 06:36:05;;;;;;;45.70;41.30;;;;;;;;;;4994542;28;20109;-77
2023/01/25 06:38:31;;;;;;;42.88;38.67;;;;;;;;;;4994382;28;20030;-76
2023/01/25 06:41:02;;;;;;;41.35;37.15;;;;;;;;;;4994337;28;20546;-77
2023/01/25 06:43:30;;;;;;;40.78;36.72;;;;;;;;;;4993970;28;20026;-77
2023/01/25 06:46:01;;;;;;;38.65;34.63;;;;;;;;;;4994275;28;20026;-78
2023/01/25 06:48:28;;;;;;;39.08;35.15;;;;;;;;;;4994342;28;20113;-82
2023/01/25 06:50:57;;;;;;;37.35;33.63;;;;;;;;;;4993027;28;20030;-82
2023/01/25 06:53:25;;;;;;;33.38;30.08;;;;;;;;;;4994571;28;20073;-82
2023/01/25 06:56:02;;;;;;;32.67;29.48;;;;;;;;;;4994243;28;20029;-84
2023/01/25 06:58:29;;;;;;;31.08;28.08;;;;;;;;;;4994417;28;20436;-83
2023/01/25 07:01:00;;;;;;;31.48;28.05;;;;;;;;;;4993981;28;20042;-83
2023/01/25 07:03:27;;;;;;;28.88;25.98;;;;;;;;;;4994233;28;20052;-83
2023/01/25 07:05:58;;;;;;;28.60;25.80;;;;;;;;;;4994700;28;20362;-77
2023/01/25 07:08:24;;;;;;;26.60;23.83;;;;;;;;;;4993286;28;20715;-77
2023/01/25 07:10:58;;;;;;;26.45;23.65;;;;;;;;;;4994689;28;20023;-77
2023/01/25 07:13:24;;;;;;;24.95;22.45;;;;;;;;;;4994455;28;20030;-77
2023/01/25 07:15:54;;;;;;;23.70;21.33;;;;;;;;;;4994280;28;20037;-77
2023/01/25 07:18:20;;;;;;;24.52;20.67;;;;;;;;;;4994426;28;20034;-77
2023/01/25 07:20:48;;;;;;;22.27;19.98;;;;;;;;;;4994184;28;20042;-77
2023/01/25 07:23:14;;;;;;;21.20;19.00;;;;;;;;;;4994253;28;20444;-77
2023/01/25 07:25:47;;;;;;;19.13;17.23;;;;;;;;;;4994352;28;20037;-78
2023/01/25 07:28:15;;;;;;;19.70;17.63;;;;;;;;;;4994458;28;20030;-77
2023/01/25 07:30:41;;;;;;;19.25;17.27;;;;;;;;;;4994044;28;20037;-77
2023/01/25 07:33:09;;;;;;;18.40;16.58;;;;;;;;;;4993990;28;20029;-77
2023/01/25 07:35:36;;;;;;;18.02;16.23;;;;;;;;;;4993992;28;20097;-77
2023/01/25 07:38:03;;;;;;;17.83;15.98;;;;;;;;;;4993987;28;20481;-77
2023/01/25 07:40:29;;;;;;;16.30;14.73;;;;;;;;;;4993846;28;20038;-77
2023/01/25 07:42:57;;;;;;;16.08;14.48;;;;;;;;;;4994014;28;20444;-78
2023/01/25 07:45:29;;;;;;;18.20;16.20;;;;;;;;;;4992685;28;20448;-77
2023/01/25 07:47:56;;;;;;;17.13;15.32;;;;;;;;;;4993422;28;20019;-77
2023/01/25 07:50:22;;;;;;;21.10;16.20;;;;;;;;;;4993024;28;20022;-77
2023/01/25 07:52:49;;;;;;;17.58;14.55;;;;;;;;;;4993234;28;20026;-78
2023/01/25 07:55:16;;;;;;;20.15;14.20;;;;;;;;;;4992220;28;20038;-77
2023/01/25 07:57:43;;;;;;;16.13;13.93;;;;;;;;;;4992911;28;20022;-78
2023/01/25 08:00:11;;;;;;;15.68;12.68;;;;;;;;;;4992956;28;20041;-77
2023/01/25 08:02:38;;;;;;;15.18;12.48;;;;;;;;;;4992955;28;20046;-77
2023/01/25 08:05:05;;;;;;;16.55;12.13;;;;;;;;;;4993050;28;20034;-76
2023/01/25 08:07:32;;;;;;;15.77;11.93;;;;;;;;;;4993238;28;20105;-76
2023/01/25 08:09:59;;;;;;;13.98;11.07;;;;;;;;;;4993031;28;20539;-76
2023/01/25 08:12:27;;;;;;;11.25;9.88;;;;;;;;;;4992799;28;20022;-76
2023/01/25 08:14:53;;;;;;;11.90;9.63;;;;;;;;;;4993073;28;20033;-75
2023/01/25 08:17:20;;;;;;;10.68;9.57;;;;;;;;;;4992621;28;20536;-76
2023/01/25 08:19:47;;;;;;;11.10;9.65;;;;;;;;;;4992729;28;20042;-76
2023/01/25 08:22:14;;;;;;;12.35;9.52;;;;;;;;;;4993026;28;20029;-75
2023/01/25 08:24:40;;;;;;;13.27;9.05;;;;;;;;;;4992642;28;20026;-76
2023/01/25 08:27:07;;;;;;;11.25;9.15;;;;;;;;;;4992651;28;20397;-76
2023/01/25 08:29:33;;;;;;;10.25;8.60;;;;;;;;;;4992576;28;20023;-76
2023/01/25 08:32:03;;;;;;;10.52;8.75;;;;;;;;;;4992594;28;20030;-75
2023/01/25 08:34:30;;;;;;;9.32;8.10;;;;;;;;;;4992736;28;20057;-76
2023/01/25 08:36:57;;;;;;;11.85;8.23;;;;;;;;;;4992579;28;20077;-76
2023/01/25 08:39:25;;;;;;;11.68;9.02;;;;;;;;;;4992502;28;20032;-85
2023/01/25 08:41:52;;;;;;;9.98;8.43;;;;;;;;;;4992984;28;20469;-86
2023/01/25 08:44:24;;;;;;;10.63;8.05;;;;;;;;;;4992551;28;20040;-85
2023/01/25 08:46:50;;;;;;;10.30;8.18;;;;;;;;;;4991313;28;20547;-85
2023/01/25 08:49:18;;;;;;;9.45;7.47;;;;;;;;;;4992614;28;20035;-85
2023/01/25 08:51:45;;;;;;;11.52;8.35;;;;;;;;;;4992552;28;20478;-86
2023/01/25 08:54:12;;;;;;;9.57;7.80;;;;;;;;;;4992613;28;20031;-86
2023/01/25 08:56:40;;;;;;;11.07;8.82;;;;;;;;;;4992472;28;20481;-76
2023/01/25 08:59:08;;;;;;;10.23;7.47;;;;;;;;;;4992470;28;20022;-76
2023/01/25 09:01:34;;;;;;;8.48;6.90;;;;;;;;;;4992066;28;20478;-76
2023/01/25 09:04:01;;;;;;;9.63;7.25;;;;;;;;;;4992054;28;20062;-76
2023/01/25 09:06:29;;;;;;;10.55;7.85;;;;;;;;;;4977541;28;20387;-76
2023/01/25 09:08:55;;;;;;;9.35;7.55;;;;;;;;;;4995941;28;20088;-76
2023/01/25 09:11:22;;;;;;;9.23;7.05;;;;;;;;;;4999559;28;20034;-77
2023/01/25 09:13:50;;;;;;;8.95;6.80;;;;;;;;;;4996248;28;20073;-76
2023/01/25 09:16:27;;;;;;;9.38;7.20;;;;;;;;;;4996332;28;20050;-76
2023/01/25 09:18:53;;;;;;;7.95;6.70;;;;;;;;;;4996401;28;20035;-77
2023/01/25 09:21:20;;;;;;;9.27;7.28;;;;;;;;;;4996156;28;20034;-77
2023/01/25 09:23:50;;;;;;;7.93;6.32;;;;;;;;;;4995937;28;20021;-77
2023/01/25 09:26:18;;;;;;;8.00;6.45;;;;;;;;;;4995895;28;20073;-77
2023/01/25 09:28:52;;;;;;;7.53;6.00;;;;;;;;;;4995819;28;20050;-76
2023/01/25 09:31:20;;;;;;;6.85;5.40;;;;;;;;;;4995788;28;20030;-76
2023/01/25 09:33:46;;;;;;;7.35;6.05;;;;;;;;;;4996055;28;20026;-77
2023/01/25 09:36:13;;;;;;;9.02;6.35;;;;;;;;;;4996098;28;20038;-78
2023/01/25 09:38:39;;;;;;;7.97;5.95;;;;;;;;;;4995638;28;20030;-77
2023/01/25 09:41:25;;;;;;;7.43;5.75;;;;;;;;;;4995546;28;20030;-78
2023/01/25 09:43:51;;;;;;;8.43;6.75;;;;;;;;;;4995864;28;20033;-77
2023/01/25 09:46:36;;;;;;;8.85;6.00;;;;;;;;;;4995905;28;20362;-78
2023/01/25 09:49:02;;;;;;;8.35;5.95;;;;;;;;;;4995482;28;20034;-79
2023/01/25 09:51:41;;;;;;;8.70;5.43;;;;;;;;;;4995550;28;20030;-78
2023/01/25 09:54:09;;;;;;;6.82;5.50;;;;;;;;;;4995528;28;20034;-78
2023/01/25 09:56:38;;;;;;;7.47;6.00;;;;;;;;;;4995535;28;20018;-76
2023/01/25 09:59:08;;;;;;;7.65;6.35;;;;;;;;;;4995645;28;20109;-77
2023/01/25 10:01:34;;;;;;;8.13;6.20;;;;;;;;;;4994758;28;20662;-77
2023/01/25 10:04:02;;;;;;;7.25;5.70;;;;;;;;;;4995710;28;20090;-76
2023/01/25 10:06:34;;;;;;;7.70;6.28;;;;;;;;;;4995689;28;20424;-76
2023/01/25 10:09:07;;;;;;;7.45;5.78;;;;;;;;;;4995128;28;20030;-76
2023/01/25 10:11:34;;;;;;;8.95;6.40;;;;;;;;;;4994969;28;20077;-75
2023/01/25 10:14:00;;;;;;;7.57;5.75;;;;;;;;;;4994824;28;20031;-76
2023/01/25 10:16:46;;;;;;;8.48;6.13;;;;;;;;;;4994552;28;20088;-75
2023/01/25 10:19:12;;;;;;;9.52;6.68;;;;;;;;;;4994720;28;20092;-76
2023/01/25 10:21:41;;;;;;;8.95;5.93;;;;;;;;;;4994746;28;20041;-76
2023/01/25 10:24:27;;;;;;;8.77;6.35;;;;;;;;;;4994695;28;20026;-76
2023/01/25 10:26:58;;;;;;;8.50;6.28;;;;;;;;;;4994729;28;20038;-76
2023/01/25 10:29:29;;;;;;;10.45;5.97;;;;;;;;;;4994940;28;20026;-76
2023/01/25 10:32:00;;;;;;;8.10;6.22;;;;;;;;;;4994751;28;20077;-76
2023/01/25 10:34:33;;;;;;;7.35;5.90;;;;;;;;;;4994984;28;20023;-76
2023/01/25 10:37:05;;;;;;;8.85;6.45;;;;;;;;;;4994554;28;20054;-76
2023/01/25 10:39:33;;;;;;;7.30;5.57;;;;;;;;;;4994566;28;20081;-76
2023/01/25 10:42:02;;;;;;;9.05;6.03;;;;;;;;;;4994296;28;20034;-76
2023/01/25 10:44:29;;;;;;;8.73;5.88;;;;;;;;;;4994529;28;20027;-79
2023/01/25 10:46:59;;;;;;;7.95;6.20;;;;;;;;;;4994436;28;20032;-76
2023/01/25 10:49:27;;;;;;;;;;;;;;;;;;4995150;28;20027;-76
2023/01/25 10:51:54;;;;;;;9.10;6.45;;;;;;;;;;4994222;28;20276;-75
2023/01/25 10:54:23;;;;;;;9.40;6.90;;;;;;;;;;4994336;28;20026;-75
2023/01/25 10:56:50;;;;;;;10.48;7.03;;;;;;;;;;4994119;28;20076;-76
2023/01/25 10:59:23;;;;;;;10.60;6.78;;;;;;;;;;4994224;28;20026;-76
2023/01/25 11:01:50;;;;;;;9.43;6.97;;;;;;;;;;4994040;28;20089;-83
2023/01/25 11:04:30;;;;;;;10.07;7.28;;;;;;;;;;4993976;28;20405;-76
2023/01/25 11:06:57;;;;;;;8.50;6.35;;;;;;;;;;4994140;28;20026;-76
2023/01/25 11:09:30;;;;;;;9.38;7.32;;;;;;;;;;4993978;28;20033;-75
2023/01/25 11:12:01;;;;;;;10.82;7.32;;;;;;;;;;4994090;28;20080;-76
2023/01/25 11:14:30;;;;;;;10.88;6.32;;;;;;;;;;4993952;28;20027;-75
2023/01/25 11:16:58;;;;;;;11.93;6.75;;;;;;;;;;4993816;28;20117;-75
2023/01/25 11:19:37;;;;;;;8.15;7.07;;;;;;;;;;4993724;28;20034;-76
2023/01/25 11:22:06;;;;;;;8.83;6.37;;;;;;;;;;4993663;28;20038;-75
2023/01/25 11:24:37;;;;;;;8.77;6.65;;;;;;;;;;4993882;28;20072;-75
2023/01/25 11:27:04;;;;;;;;;;;;;;;;;;4994068;28;20030;-76
2023/01/25 11:29:31;;;;;;;9.18;6.32;;;;;;;;;;4993534;28;19906;-76
2023/01/25 11:31:58;;;;;;;8.55;7.00;;;;;;;;;;4993483;28;20085;-75
2023/01/25 11:34:28;;;;;;;7.00;5.53;;;;;;;;;;4993445;28;20365;-76
2023/01/25 11:37:24;;;;;;;8.00;5.88;;;;;;;;;;4993510;28;20030;-77
2023/01/25 11:39:55;;;;;;;9.18;6.18;;;;;;;;;;4976599;28;20038;-76
2023/01/25 11:42:38;;;;;;;8.55;6.50;;;;;;;;;;4993659;28;20034;-86
2023/01/25 11:45:14;;;;;;;9.57;6.28;;;;;;;;;;4993699;28;20022;-86
2023/01/25 11:47:50;;;;;;;8.82;6.55;;;;;;;;;;4993299;28;20093;-93
2023/01/25 11:50:23;;;;;;;10.20;6.15;;;;;;;;;;4994208;28;20100;-86
2023/01/25 11:53:03;;;;;;;9.55;6.05;;;;;;;;;;4994000;28;20178;-83
2023/01/25 11:55:40;;;;;;;8.85;6.40;;;;;;;;;;4993075;28;20413;-83
2023/01/25 11:58:19;;;;;;;9.43;7.07;;;;;;;;;;4993623;28;20101;-82
2023/01/25 12:00:53;;;;;;;9.82;7.07;;;;;;;;;;4993154;28;20031;-78
2023/01/25 12:03:40;;;;;;;8.98;7.03;;;;;;;;;;4992957;28;20055;-77
2023/01/25 12:06:15;;;;;;;11.55;7.80;;;;;;;;;;4993018;28;20489;-77
2023/01/25 12:08:49;;;;;;;8.90;6.88;;;;;;;;;;4993146;28;20030;-76
2023/01/25 12:11:35;;;;;;;9.57;7.28;;;;;;;;;;4992925;28;20030;-76
2023/01/25 12:14:11;;;;;;;11.25;6.53;;;;;;;;;;4992842;28;20100;-76
2023/01/25 12:16:46;;;;;;;10.25;7.60;;;;;;;;;;4992893;28;20084;-76
2023/01/25 12:19:32;;;;;;;10.00;6.70;;;;;;;;;;4993332;28;20030;-85
2023/01/25 12:22:18;;;;;;;11.57;8.32;;;;;;;;;;4993629;28;20448;-86
2023/01/25 12:24:52;;;;;;;8.93;6.85;;;;;;;;;;4993992;28;20449;-86
2023/01/25 12:27:34;;;;;;;14.85;7.45;;;;;;;;;;4993847;28;20034;-86
2023/01/25 12:30:13;;;;;;;10.75;7.95;;;;;;;;;;4993827;28;20032;-86
2023/01/25 12:32:43;;;;;;;9.32;7.45;;;;;;;;;;4993765;28;20031;-86
2023/01/25 12:35:19;;;;;;;10.32;7.63;;;;;;;;;;4993783;28;20030;-85
2023/01/25 12:37:47;;;;;;;8.20;6.75;;;;;;;;;;4993221;28;20089;-76
2023/01/25 12:40:23;;;;;;;9.55;7.03;;;;;;;;;;4993213;28;20481;-76
2023/01/25 12:42:52;;;;;;;10.48;7.78;;;;;;;;;;4996618;28;20038;-76
2023/01/25 12:45:20;;;;;;;9.27;5.93;;;;;;;;;;4996604;28;20026;-76
2023/01/25 12:47:51;;;;;;;10.40;7.03;;;;;;;;;;4996578;28;20112;-76
2023/01/25 12:50:21;;;;;;;9.55;6.57;;;;;;;;;;4996533;28;20470;-76
2023/01/25 12:53:07;;;;;;;9.55;6.22;;;;;;;;;;4996515;28;20085;-76
2023/01/25 12:55:34;;;;;;;8.23;6.00;;;;;;;;;;4996479;28;20034;-85
2023/01/25 12:58:08;;;;;;;7.88;6.45;;;;;;;;;;4997338;28;20026;-86
2023/01/25 13:00:44;;;;;;;8.23;6.55;;;;;;;;;;4996793;28;20022;-85
2023/01/25 13:03:30;;;;;;;7.70;6.00;;;;;;;;;;4996511;28;20586;-87
2023/01/25 13:06:03;;;;;;;8.45;6.40;;;;;;;;;;4996148;28;20424;-82
2023/01/25 13:08:38;;;;;;;9.02;6.32;;;;;;;;;;4997989;28;20076;-92
2023/01/25 13:11:24;;;;;;;8.77;6.63;;;;;;;;;;4996956;28;20031;-87
2023/01/25 13:13:53;;;;;;;8.70;6.63;;;;;;;;;;4997127;28;20477;-76
2023/01/25 13:16:24;;;;;;;7.65;5.95;;;;;;;;;;4996131;28;20069;-77
2023/01/25 13:18:51;;;;;;;8.68;6.50;;;;;;;;;;4996053;28;20026;-76
2023/01/25 13:21:36;;;;;;;8.93;6.65;;;;;;;;;;4995906;28;20031;-76
2023/01/25 13:24:09;;;;;;;9.32;6.18;;;;;;;;;;4996116;28;20084;-76
2023/01/25 13:26:47;;;;;;;8.27;6.50;;;;;;;;;;4995707;28;20026;-77
2023/01/25 13:29:41;;;;;;;8.32;6.00;;;;;;;;;;4995695;28;20472;-78
2023/01/25 13:32:35;;;;;;;7.60;6.03;;;;;;;;;;4995761;28;20023;-79
2023/01/25 13:35:03;;;;;;;8.07;6.47;;;;;;;;;;4995826;28;20033;-85
2023/01/25 13:37:32;;;;;;;7.72;5.82;;;;;;;;;;4996073;28;20481;-82
2023/01/25 13:40:25;;;;;;;7.43;5.47;;;;;;;;;;4995790;28;20031;-84
2023/01/25 13:43:00;;;;;;;7.10;5.28;;;;;;;;;;4992322;28;20463;-81
2023/01/25 13:45:27;;;;;;;7.22;5.78;;;;;;;;;;4994664;28;20049;-85
2023/01/25 13:48:09;;;;;;;7.03;5.32;;;;;;;;;;4995552;28;20105;-82
2023/01/25 13:50:44;;;;;;;7.93;5.70;;;;;;;;;;4995503;28;20085;-77
2023/01/25 13:53:19;;;;;;;7.82;5.90;;;;;;;;;;4994307;28;20027;-76
2023/01/25 13:55:48;;;;;;;6.75;5.55;;;;;;;;;;4995312;28;20034;-76
2023/01/25 13:58:24;;;;;;;7.85;5.78;;;;;;;;;;4995347;28;20038;-76
2023/01/25 14:00:56;;;;;;;8.25;6.10;;;;;;;;;;4995245;28;20097;-76
2023/01/25 14:03:26;;;;;;;9.15;7.03;;;;;;;;;;4994890;28;20139;-76
2023/01/25 14:05:55;;;;;;;8.35;6.47;;;;;;;;;;4995193;28;20740;-76
2023/01/25 14:08:22;;;;;;;8.88;7.05;;;;;;;;;;4995171;28;20026;-76
2023/01/25 14:10:50;;;;;;;9.65;6.90;;;;;;;;;;4995362;28;20033;-76
2023/01/25 14:13:18;;;;;;;8.68;6.22;;;;;;;;;;4995072;28;20039;-76
2023/01/25 14:15:54;;;;;;;8.40;6.68;;;;;;;;;;4994977;28;20113;-76
2023/01/25 14:18:22;;;;;;;8.23;6.25;;;;;;;;;;4994801;28;20038;-76
2023/01/25 14:20:52;;;;;;;8.57;6.30;;;;;;;;;;4994879;28;20023;-76
2023/01/25 14:23:23;;;;;;;9.27;6.38;;;;;;;;;;4994841;28;20099;-76
2023/01/25 14:25:51;;;;;;;8.43;6.43;;;;;;;;;;4994866;28;20032;-76
2023/01/25 14:28:18;;;;;;;9.13;6.28;;;;;;;;;;4994875;28;20062;-76
2023/01/25 14:30:50;;;;;;;9.25;7.25;;;;;;;;;;4994500;28;20033;-76
2023/01/25 14:33:20;;;;;;;10.30;6.80;;;;;;;;;;4994474;28;20023;-75
2023/01/25 14:35:48;;;;;;;9.60;7.05;;;;;;;;;;4994398;28;20022;-76
2023/01/25 14:38:21;;;;;;;10.48;7.38;;;;;;;;;;4994412;28;20042;-76
2023/01/25 14:40:49;;;;;;;10.23;7.28;;;;;;;;;;4994240;28;20027;-75
2023/01/25 14:43:16;;;;;;;9.30;6.97;;;;;;;;;;4994213;28;20034;-76
2023/01/25 14:45:44;;;;;;;11.38;7.93;;;;;;;;;;4994241;28;20018;-76
2023/01/25 14:48:29;;;;;;;10.02;7.55;;;;;;;;;;4996127;28;20447;-90
2023/01/25 14:51:03;;;;;;;11.13;7.97;;;;;;;;;;4995991;28;20471;-91